createdAt,value
2019-04-10T00:01:02.147Z,11.40
2019-04-10T00:03:33.649Z,11.40
2019-04-10T00:06:00.744Z,11.40
2019-04-10T00:08:30.289Z,11.40
2019-04-10T00:10:58.919Z,11.30
2019-04-10T00:13:28.855Z,11.30
2019-04-10T00:15:57.315Z,11.30
2019-04-10T00:18:26.272Z,11.30
2019-04-10T00:20:54.895Z,11.30
2019-04-10T00:23:23.318Z,11.20
2019-04-10T00:25:52.926Z,11.20
2019-04-10T00:28:21.891Z,11.20
2019-04-10T00:30:51.254Z,11.10
2019-04-10T00:33:20.780Z,11.00
2019-04-10T00:35:49.872Z,11.00
2019-04-10T00:38:18.323Z,10.90
2019-04-10T00:40:47.795Z,10.90
2019-04-10T00:43:17.050Z,10.80
2019-04-10T00:45:45.969Z,10.80
2019-04-10T00:48:15.494Z,10.70
2019-04-10T00:50:44.604Z,10.70
2019-04-10T00:53:13.466Z,10.60
2019-04-10T00:55:41.967Z,10.50
2019-04-10T00:58:10.522Z,10.50
2019-04-10T01:00:39.288Z,10.40
2019-04-10T01:03:07.909Z,10.40
2019-04-10T01:05:37.515Z,10.30
2019-04-10T01:08:06.591Z,10.30
2019-04-10T01:10:35.416Z,10.10
2019-04-10T01:13:04.894Z,10.10
2019-04-10T01:15:34.404Z,10.10
2019-04-10T01:18:03.136Z,10.00
2019-04-10T01:20:31.591Z,10.00
2019-04-10T01:23:00.071Z,9.90
2019-04-10T01:25:28.561Z,10.00
2019-04-10T01:27:58.316Z,9.90
2019-04-10T01:30:26.911Z,9.90
2019-04-10T01:32:56.537Z,9.90
2019-04-10T01:35:25.074Z,9.80
2019-04-10T01:37:58.183Z,9.80
2019-04-10T01:40:23.697Z,9.80
2019-04-10T01:43:02.773Z,9.70
2019-04-10T01:45:22.262Z,9.70
2019-04-10T01:47:51.215Z,9.70
2019-04-10T01:50:20.097Z,9.70
2019-04-10T01:52:49.128Z,9.60
2019-04-10T01:55:25.284Z,9.70
2019-04-10T01:57:48.514Z,9.60
2019-04-10T02:00:19.533Z,9.60
2019-04-10T02:02:54.077Z,9.50
2019-04-10T02:05:22.948Z,9.50
2019-04-10T02:08:01.333Z,9.40
2019-04-10T02:10:21.624Z,9.40
2019-04-10T02:12:50.822Z,9.40
2019-04-10T02:15:19.788Z,9.40
2019-04-10T02:17:48.719Z,9.30
2019-04-10T02:20:17.347Z,9.30
2019-04-10T02:22:45.888Z,9.20
2019-04-10T02:25:15.699Z,9.20
2019-04-10T02:27:44.713Z,9.20
2019-04-10T02:30:16.414Z,9.20
2019-04-10T02:32:47.646Z,9.10
2019-04-10T02:35:17.184Z,9.10
2019-04-10T02:37:44.357Z,9.10
2019-04-10T02:40:14.908Z,9.00
2019-04-10T02:42:45.002Z,8.90
2019-04-10T02:45:14.893Z,8.90
2019-04-10T02:47:44.991Z,8.90
2019-04-10T02:50:14.256Z,8.90
2019-04-10T02:52:43.288Z,8.80
2019-04-10T02:55:12.044Z,8.80
2019-04-10T02:57:41.381Z,8.70
2019-04-10T03:00:12.763Z,8.70
2019-04-10T03:02:41.698Z,8.60
2019-04-10T03:05:11.117Z,8.60
2019-04-10T03:07:40.391Z,8.50
2019-04-10T03:10:20.532Z,8.50
2019-04-10T03:12:41.051Z,8.50
2019-04-10T03:15:12.362Z,8.50
2019-04-10T03:17:40.672Z,8.40
2019-04-10T03:20:10.021Z,8.40
2019-04-10T03:22:38.569Z,8.40
2019-04-10T03:25:08.736Z,8.30
2019-04-10T03:27:38.556Z,8.30
2019-04-10T03:30:12.110Z,8.20
2019-04-10T03:32:50.274Z,8.20
2019-04-10T03:35:27.578Z,8.10
2019-04-10T03:37:57.311Z,8.00
2019-04-10T03:40:27.068Z,8.00
2019-04-10T03:42:55.652Z,7.90
2019-04-10T03:45:24.435Z,7.90
2019-04-10T03:47:52.879Z,7.90
2019-04-10T03:50:21.276Z,7.80
2019-04-10T03:52:49.719Z,7.80
2019-04-10T03:55:18.910Z,7.80
2019-04-10T03:57:47.598Z,7.80
2019-04-10T04:00:16.585Z,7.70
2019-04-10T04:02:44.978Z,7.70
2019-04-10T04:05:13.386Z,7.70
2019-04-10T04:07:43.134Z,7.70
2019-04-10T04:10:13.242Z,7.60
2019-04-10T04:12:42.554Z,7.70
2019-04-10T04:15:11.526Z,7.60
2019-04-10T04:17:40.146Z,7.50
2019-04-10T04:20:08.939Z,7.40
2019-04-10T04:22:37.385Z,7.40
2019-04-10T04:25:06.909Z,7.40
2019-04-10T04:27:35.710Z,7.40
2019-04-10T04:30:07.046Z,7.40
2019-04-10T04:32:35.453Z,7.40
2019-04-10T04:35:04.695Z,7.40
2019-04-10T04:37:33.571Z,7.40
2019-04-10T04:40:03.041Z,7.40
2019-04-10T04:42:32.924Z,7.40
2019-04-10T04:45:01.518Z,7.50
2019-04-10T04:47:30.915Z,7.50
2019-04-10T04:49:59.541Z,7.50
2019-04-10T04:52:27.959Z,7.50
2019-04-10T04:54:57.323Z,7.60
2019-04-10T04:57:25.925Z,7.60
2019-04-10T04:59:54.373Z,7.60
2019-04-10T05:02:22.977Z,7.60
2019-04-10T05:04:51.527Z,7.60
2019-04-10T05:07:20.335Z,7.60
2019-04-10T05:09:49.030Z,7.60
2019-04-10T05:12:18.060Z,7.70
2019-04-10T05:14:46.503Z,7.80
2019-04-10T05:17:16.674Z,7.80
2019-04-10T05:19:45.102Z,7.80
2019-04-10T05:22:14.381Z,7.80
2019-04-10T05:24:42.960Z,7.90
2019-04-10T05:27:11.912Z,7.90
2019-04-10T05:29:40.880Z,7.90
2019-04-10T05:32:09.463Z,7.90
2019-04-10T05:34:38.354Z,7.90
2019-04-10T05:37:07.341Z,7.90
2019-04-10T05:39:43.189Z,7.90
2019-04-10T05:42:06.410Z,7.90
2019-04-10T05:44:35.962Z,7.90
2019-04-10T05:47:05.396Z,7.90
2019-04-10T05:49:33.901Z,7.90
2019-04-10T05:52:02.324Z,7.90
2019-04-10T05:54:31.111Z,8.00
2019-04-10T05:56:59.586Z,8.10
2019-04-10T05:59:28.188Z,8.00
2019-04-10T06:01:57.000Z,8.00
2019-04-10T06:04:25.513Z,8.00
2019-04-10T06:06:54.820Z,8.00
2019-04-10T06:09:24.504Z,8.00
2019-04-10T06:11:53.259Z,8.00
2019-04-10T06:14:22.063Z,8.00
2019-04-10T06:16:51.058Z,8.00
2019-04-10T06:19:19.944Z,8.00
2019-04-10T06:21:48.532Z,8.00
2019-04-10T06:24:18.192Z,8.00
2019-04-10T06:26:47.918Z,8.00
2019-04-10T06:29:17.115Z,8.00
2019-04-10T06:31:45.647Z,8.00
2019-04-10T06:34:16.146Z,8.00
2019-04-10T06:36:44.429Z,8.00
2019-04-10T06:39:13.014Z,8.00
2019-04-10T06:41:41.452Z,8.00
2019-04-10T06:44:09.954Z,8.20
2019-04-10T06:46:39.393Z,8.30
2019-04-10T06:49:09.273Z,8.40
2019-04-10T06:51:37.891Z,8.50
2019-04-10T06:54:09.871Z,8.60
2019-04-10T06:56:37.514Z,8.80
2019-04-10T06:59:06.697Z,8.90
2019-04-10T07:01:44.337Z,9.00
2019-04-10T07:04:07.984Z,9.00
2019-04-10T07:06:48.999Z,9.00
2019-04-10T07:09:09.569Z,9.10
2019-04-10T07:11:38.633Z,9.10
2019-04-10T07:14:13.416Z,9.10
2019-04-10T07:16:38.256Z,9.10
2019-04-10T07:19:08.816Z,9.10
2019-04-10T07:21:37.580Z,9.00
2019-04-10T07:24:10.562Z,9.10
2019-04-10T07:26:42.006Z,9.20
2019-04-10T07:29:08.969Z,9.30
2019-04-10T07:31:38.256Z,9.50
2019-04-10T07:34:08.829Z,9.50
2019-04-10T07:36:41.468Z,9.60
2019-04-10T07:39:07.856Z,9.80
2019-04-10T07:41:36.261Z,9.90
2019-04-10T07:44:05.806Z,10.00
2019-04-10T07:46:34.727Z,10.10
2019-04-10T07:49:03.264Z,10.00
2019-04-10T07:51:31.932Z,10.00
2019-04-10T07:54:00.460Z,10.00
2019-04-10T07:56:29.119Z,10.10
2019-04-10T07:58:57.685Z,10.10
2019-04-10T08:01:26.397Z,10.20
2019-04-10T08:03:55.660Z,10.30
2019-04-10T08:06:24.207Z,10.30
2019-04-10T08:08:54.068Z,10.20
2019-04-10T08:11:22.478Z,10.30
2019-04-10T08:13:51.241Z,10.20
2019-04-10T08:16:19.702Z,10.30
2019-04-10T08:18:48.113Z,10.40
2019-04-10T08:21:17.654Z,10.40
2019-04-10T08:23:46.513Z,10.40
2019-04-10T08:26:15.037Z,10.50
2019-04-10T08:28:43.488Z,10.60
2019-04-10T08:31:12.760Z,10.70
2019-04-10T08:33:42.050Z,10.80
2019-04-10T08:36:10.941Z,10.90
2019-04-10T08:38:40.112Z,10.90
2019-04-10T08:41:08.785Z,11.00
2019-04-10T08:43:37.610Z,11.00
2019-04-10T08:46:06.141Z,11.10
2019-04-10T08:48:34.688Z,11.10
2019-04-10T08:51:03.201Z,11.10
2019-04-10T08:53:31.661Z,11.20
2019-04-10T08:56:00.137Z,11.20
2019-04-10T08:58:28.591Z,11.30
2019-04-10T09:00:57.007Z,11.30
2019-04-10T09:03:26.653Z,11.10
2019-04-10T09:05:55.315Z,11.10
2019-04-10T09:08:24.581Z,11.00
2019-04-10T09:10:53.170Z,11.00
2019-04-10T09:13:22.170Z,11.10
2019-04-10T09:15:51.026Z,11.20
2019-04-10T09:18:20.975Z,11.30
2019-04-10T09:20:49.546Z,11.50
2019-04-10T09:23:27.819Z,11.60
2019-04-10T09:25:49.090Z,11.60
2019-04-10T09:28:18.194Z,11.70
2019-04-10T09:30:46.935Z,11.70
2019-04-10T09:33:22.049Z,11.80
2019-04-10T09:35:46.828Z,12.00
2019-04-10T09:38:15.350Z,12.20
2019-04-10T09:40:44.711Z,12.20
2019-04-10T09:43:14.228Z,12.30
2019-04-10T09:45:43.774Z,12.40
2019-04-10T09:48:12.812Z,12.60
2019-04-10T09:50:41.822Z,12.70
2019-04-10T09:53:10.783Z,12.90
2019-04-10T09:55:40.290Z,13.00
2019-04-10T09:58:08.949Z,13.30
2019-04-10T10:00:38.187Z,13.50
2019-04-10T10:03:07.587Z,13.70
2019-04-10T10:05:36.934Z,13.80
2019-04-10T10:08:06.433Z,13.90
2019-04-10T10:10:37.215Z,14.00
2019-04-10T10:13:06.129Z,14.00
2019-04-10T10:15:35.520Z,13.90
2019-04-10T10:18:04.070Z,13.60
2019-04-10T10:20:32.511Z,13.50
2019-04-10T10:23:01.322Z,13.50
2019-04-10T10:25:30.977Z,13.60
2019-04-10T10:27:59.645Z,13.60
2019-04-10T10:30:28.224Z,13.60
2019-04-10T10:32:57.279Z,13.70
2019-04-10T10:35:25.792Z,13.80
2019-04-10T10:37:54.713Z,13.90
2019-04-10T10:40:25.554Z,13.80
2019-04-10T10:42:54.101Z,13.70
2019-04-10T10:45:22.864Z,13.70
2019-04-10T10:47:52.601Z,13.70
2019-04-10T10:50:22.195Z,13.80
2019-04-10T10:52:51.922Z,13.90
2019-04-10T10:55:21.269Z,14.00
2019-04-10T10:57:50.890Z,14.10
2019-04-10T11:00:21.407Z,14.20
2019-04-10T11:02:49.937Z,14.30
2019-04-10T11:05:19.094Z,14.40
2019-04-10T11:07:48.908Z,14.20
2019-04-10T11:10:22.060Z,14.20
2019-04-10T11:12:48.376Z,14.30
2019-04-10T11:15:18.289Z,14.50
2019-04-10T11:17:47.216Z,14.60
2019-04-10T11:20:17.641Z,14.80
2019-04-10T11:22:47.445Z,14.80
2019-04-10T11:25:16.013Z,14.60
2019-04-10T11:27:44.421Z,14.60
2019-04-10T11:30:13.749Z,14.70
2019-04-10T11:32:42.480Z,14.70
2019-04-10T11:35:13.065Z,14.90
2019-04-10T11:37:46.829Z,15.00
2019-04-10T11:40:16.278Z,15.10
2019-04-10T11:42:44.589Z,15.20
2019-04-10T11:45:16.181Z,15.30
2019-04-10T11:47:44.914Z,15.40
2019-04-10T11:50:17.247Z,15.50
2019-04-10T11:52:51.224Z,15.60
2019-04-10T11:55:19.810Z,15.70
2019-04-10T11:57:48.626Z,15.80
2019-04-10T12:00:19.651Z,15.90
2019-04-10T12:02:49.696Z,15.90
2019-04-10T12:05:19.916Z,16.00
2019-04-10T12:08:18.118Z,16.10
2019-04-10T12:12:48.133Z,16.20
2019-04-10T12:15:17.279Z,16.40
2019-04-10T12:17:46.509Z,16.60
2019-04-10T12:20:16.636Z,16.70
2019-04-10T12:22:46.186Z,16.70
2019-04-10T12:25:15.869Z,16.80
2019-04-10T12:27:45.288Z,17.00
2019-04-10T12:30:15.201Z,17.10
2019-04-10T12:32:45.887Z,17.20
2019-04-10T12:35:15.051Z,17.40
2019-04-10T12:37:43.538Z,17.60
2019-04-10T12:40:12.413Z,17.60
2019-04-10T12:42:40.905Z,17.70
2019-04-10T12:45:09.988Z,17.90
2019-04-10T12:47:38.434Z,18.20
2019-04-10T12:50:08.135Z,18.40
2019-04-10T12:52:36.710Z,18.40
2019-04-10T12:55:06.500Z,18.50
2019-04-10T12:57:34.941Z,18.60
2019-04-10T13:00:05.231Z,18.80
2019-04-10T13:02:34.358Z,18.90
2019-04-10T13:05:04.994Z,18.90
2019-04-10T13:07:33.928Z,18.70
2019-04-10T13:10:02.624Z,18.60
2019-04-10T13:12:31.299Z,18.60
2019-04-10T13:15:01.198Z,18.70
2019-04-10T13:17:30.943Z,19.10
2019-04-10T13:19:59.684Z,19.40
2019-04-10T13:22:28.449Z,19.60
2019-04-10T13:24:57.706Z,19.80
2019-04-10T13:27:26.467Z,20.00
2019-04-10T13:29:55.057Z,19.90
2019-04-10T13:32:23.454Z,19.90
2019-04-10T13:34:51.909Z,19.90
2019-04-10T13:37:20.393Z,20.00
2019-04-10T13:39:48.941Z,20.50
2019-04-10T13:42:17.453Z,21.30
2019-04-10T13:44:46.741Z,21.80
2019-04-10T13:47:15.481Z,21.70
2019-04-10T13:49:44.195Z,21.40
2019-04-10T13:52:12.778Z,20.20
2019-04-10T13:54:41.382Z,19.60
2019-04-10T13:57:09.835Z,20.00
2019-04-10T13:59:39.356Z,20.50
2019-04-10T14:02:09.622Z,20.80
2019-04-10T14:04:39.568Z,20.80
2019-04-10T14:07:08.136Z,20.40
2019-04-10T14:09:44.034Z,19.80
2019-04-10T14:12:07.993Z,19.50
2019-04-10T14:14:37.051Z,19.30
2019-04-10T14:17:06.858Z,19.40
2019-04-10T14:19:35.931Z,19.50
2019-04-10T14:22:05.258Z,19.50
2019-04-10T14:24:44.017Z,19.60
2019-04-10T14:27:12.218Z,19.60
2019-04-10T14:29:40.802Z,19.70
2019-04-10T14:32:11.330Z,19.80
2019-04-10T14:34:40.789Z,19.00
2019-04-10T14:37:11.512Z,18.90
2019-04-10T14:39:41.136Z,18.90
2019-04-10T14:42:10.594Z,18.70
2019-04-10T14:44:39.209Z,18.40
2019-04-10T14:47:08.578Z,18.30
2019-04-10T14:49:37.585Z,18.40
2019-04-10T14:52:06.116Z,18.60
2019-04-10T14:54:35.753Z,18.70
2019-04-10T14:57:04.553Z,18.70
2019-04-10T14:59:33.799Z,18.90
2019-04-10T15:02:03.356Z,19.60
2019-04-10T15:04:31.807Z,20.40
2019-04-10T15:07:00.399Z,21.20
2019-04-10T15:09:28.836Z,22.10
2019-04-10T15:11:57.372Z,22.80
2019-04-10T15:14:26.228Z,23.00
2019-04-10T15:17:01.053Z,23.00
2019-04-10T15:19:24.902Z,23.00
2019-04-10T15:21:54.010Z,22.70
2019-04-10T15:24:23.685Z,22.30
2019-04-10T15:26:52.887Z,22.00
2019-04-10T15:29:22.698Z,21.50
2019-04-10T15:31:52.217Z,21.20
2019-04-10T15:34:20.740Z,20.90
2019-04-10T15:36:49.457Z,20.60
2019-04-10T15:39:25.783Z,20.30
2019-04-10T15:41:48.416Z,20.20
2019-04-10T15:44:18.215Z,20.50
2019-04-10T15:46:46.832Z,21.00
2019-04-10T15:49:15.391Z,21.70
2019-04-10T15:51:43.957Z,22.20
2019-04-10T15:54:12.449Z,22.50
2019-04-10T15:56:42.245Z,22.30
2019-04-10T15:59:10.803Z,22.10
2019-04-10T16:01:39.339Z,21.80
2019-04-10T16:04:08.633Z,21.70
2019-04-10T16:06:38.116Z,21.40
2019-04-10T16:09:07.777Z,21.30
2019-04-10T16:11:43.866Z,21.20
2019-04-10T16:14:20.891Z,21.00
2019-04-10T16:16:46.802Z,20.80
2019-04-10T16:19:20.463Z,20.90
2019-04-10T16:21:50.011Z,20.80
2019-04-10T16:24:20.647Z,20.70
2019-04-10T16:26:49.638Z,20.60
2019-04-10T16:29:18.232Z,20.50
2019-04-10T16:31:46.649Z,20.00
2019-04-10T16:34:15.688Z,19.30
2019-04-10T16:36:44.405Z,18.70
2019-04-10T16:39:17.574Z,18.20
2019-04-10T16:41:46.368Z,17.80
2019-04-10T16:44:15.068Z,17.20
2019-04-10T16:46:44.785Z,16.50
2019-04-10T16:49:14.726Z,15.70
2019-04-10T16:51:43.267Z,15.30
2019-04-10T16:54:12.612Z,14.90
2019-04-10T16:56:42.169Z,14.60
2019-04-10T16:59:10.820Z,14.30
2019-04-10T17:01:39.284Z,14.10
2019-04-10T17:04:09.004Z,14.00
2019-04-10T17:06:38.677Z,13.90
2019-04-10T17:09:10.275Z,13.90
2019-04-10T17:11:38.941Z,14.00
2019-04-10T17:14:07.806Z,14.00
2019-04-10T17:16:36.239Z,14.00
2019-04-10T17:19:05.639Z,14.00
2019-04-10T17:21:34.369Z,14.00
2019-04-10T17:24:03.145Z,13.90
2019-04-10T17:26:33.351Z,13.80
2019-04-10T17:29:02.935Z,13.80
2019-04-10T17:31:32.811Z,13.80
2019-04-10T17:34:02.665Z,13.80
2019-04-10T17:36:31.300Z,13.80
2019-04-10T17:39:00.828Z,13.70
2019-04-10T17:41:29.426Z,13.70
2019-04-10T17:43:58.857Z,13.70
2019-04-10T17:46:28.106Z,13.60
2019-04-10T17:48:56.692Z,13.60
2019-04-10T17:51:25.913Z,13.50
2019-04-10T17:53:55.790Z,13.50
2019-04-10T17:56:24.463Z,13.20
2019-04-10T17:58:53.966Z,13.10
2019-04-10T18:01:24.982Z,13.00
2019-04-10T18:03:58.149Z,12.80
2019-04-10T18:06:23.689Z,12.80
2019-04-10T18:08:52.133Z,12.70
2019-04-10T18:11:20.556Z,12.50
2019-04-10T18:13:49.198Z,12.50
2019-04-10T18:16:17.969Z,12.40
2019-04-10T18:18:47.281Z,12.30
2019-04-10T18:21:16.918Z,12.20
2019-04-10T18:23:45.603Z,12.20
2019-04-10T18:26:14.249Z,12.10
2019-04-10T18:28:43.564Z,12.10
2019-04-10T18:31:12.492Z,12.00
2019-04-10T18:33:41.052Z,11.90
2019-04-10T18:36:09.477Z,11.80
2019-04-10T18:38:37.883Z,11.80
2019-04-10T18:41:08.390Z,11.70
2019-04-10T18:43:36.612Z,11.70
2019-04-10T18:46:12.293Z,11.60
2019-04-10T18:48:35.246Z,11.50
2019-04-10T18:51:06.199Z,11.40
2019-04-10T18:53:33.877Z,11.30
2019-04-10T18:56:02.987Z,11.30
2019-04-10T18:58:33.841Z,11.20
2019-04-10T19:01:21.079Z,11.10
2019-04-10T19:04:01.468Z,11.10
2019-04-10T19:06:28.905Z,11.10
2019-04-10T19:09:07.803Z,11.00
2019-04-10T19:11:33.288Z,10.90
2019-04-10T19:13:57.680Z,10.80
2019-04-10T19:16:26.242Z,10.80
2019-04-10T19:18:55.358Z,10.70
2019-04-10T19:21:25.011Z,10.70
2019-04-10T19:23:53.521Z,10.60
2019-04-10T19:26:23.170Z,10.60
2019-04-10T19:28:52.788Z,10.50
2019-04-10T19:31:24.650Z,10.50
2019-04-10T19:33:53.162Z,10.40
2019-04-10T19:36:21.666Z,10.40
2019-04-10T19:38:50.195Z,10.30
2019-04-10T19:41:25.120Z,10.20
2019-04-10T19:43:48.757Z,10.20
2019-04-10T19:46:17.472Z,10.20
2019-04-10T19:48:48.960Z,10.10
2019-04-10T19:51:16.372Z,10.10
2019-04-10T19:53:45.805Z,10.10
2019-04-10T19:56:14.327Z,10.00
2019-04-10T19:58:43.989Z,9.90
2019-04-10T20:01:12.780Z,9.90
2019-04-10T20:03:41.339Z,9.90
2019-04-10T20:06:10.000Z,9.80
2019-04-10T20:08:38.440Z,9.80
2019-04-10T20:11:06.860Z,9.70
2019-04-10T20:13:35.253Z,9.70
2019-04-10T20:16:03.720Z,9.60
2019-04-10T20:18:32.824Z,9.60
2019-04-10T20:21:01.842Z,9.50
2019-04-10T20:23:30.326Z,9.50
2019-04-10T20:25:58.872Z,9.50
2019-04-10T20:28:27.358Z,9.40
2019-04-10T20:30:56.768Z,9.40
2019-04-10T20:33:26.999Z,9.40
2019-04-10T20:35:56.398Z,9.40
2019-04-10T20:38:25.182Z,9.30
2019-04-10T20:40:54.039Z,9.20
2019-04-10T20:43:22.823Z,9.20
2019-04-10T20:45:51.307Z,9.20
2019-04-10T20:48:20.375Z,9.10
2019-04-10T20:50:50.249Z,9.10
2019-04-10T20:53:19.909Z,9.00
2019-04-10T20:55:48.470Z,8.90
2019-04-10T20:58:17.684Z,8.90
2019-04-10T21:00:47.276Z,8.90
2019-04-10T21:03:15.726Z,8.80
2019-04-10T21:05:44.550Z,8.70
2019-04-10T21:08:13.741Z,8.70
2019-04-10T21:10:42.902Z,8.60
2019-04-10T21:13:11.524Z,8.60
2019-04-10T21:15:40.109Z,8.60
2019-04-10T21:18:08.606Z,8.50
2019-04-10T21:20:40.767Z,8.50
2019-04-10T21:23:09.405Z,8.40
2019-04-10T21:25:37.805Z,8.40
2019-04-10T21:28:06.248Z,8.40
2019-04-10T21:30:36.304Z,8.30
2019-04-10T21:33:22.627Z,8.30
2019-04-10T21:35:51.938Z,8.30
2019-04-10T21:38:21.467Z,8.20
2019-04-10T21:40:50.031Z,8.10
2019-04-10T21:43:18.566Z,8.10
2019-04-10T21:45:49.699Z,8.10
2019-04-10T21:48:18.865Z,8.00
2019-04-10T21:50:47.453Z,8.00
2019-04-10T21:53:16.466Z,8.00
2019-04-10T21:55:45.857Z,8.00
2019-04-10T21:58:14.536Z,8.00
2019-04-10T22:00:51.145Z,7.90
2019-04-10T22:03:19.645Z,7.90
2019-04-10T22:05:55.885Z,7.80
2019-04-10T22:08:41.438Z,7.80
2019-04-10T22:11:09.849Z,7.80
2019-04-10T22:13:40.061Z,7.80
2019-04-10T22:16:11.411Z,7.70
2019-04-10T22:18:40.117Z,7.80
2019-04-10T22:21:08.778Z,7.80
2019-04-10T22:23:37.377Z,7.70
2019-04-10T22:26:05.901Z,7.60
2019-04-10T22:28:34.320Z,7.60
2019-04-10T22:31:02.743Z,7.50
2019-04-10T22:33:32.064Z,7.40
2019-04-10T22:36:00.538Z,7.30
2019-04-10T22:38:29.332Z,7.30
2019-04-10T22:40:58.160Z,7.30
2019-04-10T22:43:27.846Z,7.40
2019-04-10T22:45:56.998Z,7.30
2019-04-10T22:48:25.483Z,7.30
2019-04-10T22:50:53.889Z,7.20
2019-04-10T22:53:23.433Z,7.10
2019-04-10T22:55:52.840Z,7.10
2019-04-10T22:58:21.349Z,7.10
2019-04-10T23:00:50.950Z,7.10
2019-04-10T23:03:20.210Z,7.00
2019-04-10T23:05:48.974Z,7.00
2019-04-10T23:08:17.693Z,6.90
2019-04-10T23:10:46.300Z,6.90
2019-04-10T23:13:14.730Z,6.80
2019-04-10T23:15:43.981Z,6.80
2019-04-10T23:18:13.047Z,6.80
2019-04-10T23:20:41.779Z,6.70
2019-04-10T23:23:10.634Z,6.70
2019-04-10T23:25:40.469Z,6.70
2019-04-10T23:28:09.495Z,6.70
2019-04-10T23:30:39.131Z,6.70
2019-04-10T23:33:08.062Z,6.60
2019-04-10T23:35:37.799Z,6.60
2019-04-10T23:38:07.043Z,6.50
2019-04-10T23:40:35.505Z,6.50
2019-04-10T23:43:11.312Z,6.40
2019-04-10T23:45:34.635Z,6.30
2019-04-10T23:48:03.207Z,6.30
2019-04-10T23:50:32.384Z,6.30
2019-04-10T23:53:01.047Z,6.20
2019-04-10T23:55:32.932Z,6.10
2019-04-10T23:58:02.096Z,6.00
